sensor_id;sensor_type;location;lat;lon;timestamp;P1;durP1;ratioP1;P2;durP2;ratioP2
286;SDS011;127;48.770;9.212;2022-08-03T00:01:25;5.63;;;4.57;;
286;SDS011;127;48.770;9.212;2022-08-03T00:03:54;5.60;;;4.00;;
286;SDS011;127;48.770;9.212;2022-08-03T00:06:22;6.87;;;3.97;;
286;SDS011;127;48.770;9.212;2022-08-03T00:08:51;6.77;;;4.10;;
286;SDS011;127;48.770;9.212;2022-08-03T00:11:20;7.87;;;3.90;;
286;SDS011;127;48.770;9.212;2022-08-03T00:13:49;5.10;;;3.87;;
286;SDS011;127;48.770;9.212;2022-08-03T00:16:21;4.33;;;3.80;;
286;SDS011;127;48.770;9.212;2022-08-03T00:18:50;5.10;;;3.57;;
286;SDS011;127;48.770;9.212;2022-08-03T00:21:19;7.40;;;4.23;;
286;SDS011;127;48.770;9.212;2022-08-03T00:23:48;5.30;;;4.23;;
286;SDS011;127;48.770;9.212;2022-08-03T00:26:16;7.10;;;4.20;;
286;SDS011;127;48.770;9.212;2022-08-03T00:28:46;5.97;;;4.47;;
286;SDS011;127;48.770;9.212;2022-08-03T00:31:15;5.97;;;3.80;;
286;SDS011;127;48.770;9.212;2022-08-03T00:33:46;5.73;;;4.33;;
286;SDS011;127;48.770;9.212;2022-08-03T00:36:15;7.03;;;4.50;;
286;SDS011;127;48.770;9.212;2022-08-03T00:38:44;7.40;;;4.30;;
286;SDS011;127;48.770;9.212;2022-08-03T00:41:12;6.63;;;4.23;;
286;SDS011;127;48.770;9.212;2022-08-03T00:43:41;4.27;;;3.50;;
286;SDS011;127;48.770;9.212;2022-08-03T00:46:11;5.70;;;4.30;;
286;SDS011;127;48.770;9.212;2022-08-03T00:48:40;6.07;;;4.13;;
286;SDS011;127;48.770;9.212;2022-08-03T00:51:11;5.50;;;4.20;;
286;SDS011;127;48.770;9.212;2022-08-03T00:53:40;7.33;;;3.90;;
286;SDS011;127;48.770;9.212;2022-08-03T00:56:11;4.80;;;3.67;;
286;SDS011;127;48.770;9.212;2022-08-03T00:58:42;4.90;;;3.90;;
286;SDS011;127;48.770;9.212;2022-08-03T01:01:12;4.33;;;4.00;;
286;SDS011;127;48.770;9.212;2022-08-03T01:03:48;4.73;;;3.90;;
286;SDS011;127;48.770;9.212;2022-08-03T01:06:22;5.33;;;3.70;;
286;SDS011;127;48.770;9.212;2022-08-03T01:09:00;5.37;;;3.90;;
286;SDS011;127;48.770;9.212;2022-08-03T01:11:36;6.23;;;4.30;;
286;SDS011;127;48.770;9.212;2022-08-03T01:14:12;4.97;;;3.70;;
286;SDS011;127;48.770;9.212;2022-08-03T01:16:45;6.30;;;4.10;;
286;SDS011;127;48.770;9.212;2022-08-03T01:19:44;9.27;;;4.40;;
286;SDS011;127;48.770;9.212;2022-08-03T01:22:34;6.53;;;4.70;;
286;SDS011;127;48.770;9.212;2022-08-03T01:25:23;8.87;;;4.50;;
286;SDS011;127;48.770;9.212;2022-08-03T01:28:02;8.60;;;4.50;;
286;SDS011;127;48.770;9.212;2022-08-03T01:30:44;8.07;;;4.00;;
286;SDS011;127;48.770;9.212;2022-08-03T01:33:16;6.00;;;4.50;;
286;SDS011;127;48.770;9.212;2022-08-03T01:35:47;6.33;;;4.17;;
286;SDS011;127;48.770;9.212;2022-08-03T01:38:22;8.53;;;4.43;;
286;SDS011;127;48.770;9.212;2022-08-03T01:40:55;5.97;;;4.40;;
286;SDS011;127;48.770;9.212;2022-08-03T01:43:25;5.47;;;4.40;;
286;SDS011;127;48.770;9.212;2022-08-03T01:45:58;9.53;;;4.43;;
286;SDS011;127;48.770;9.212;2022-08-03T01:48:28;7.13;;;4.73;;
286;SDS011;127;48.770;9.212;2022-08-03T01:50:58;6.00;;;3.93;;
286;SDS011;127;48.770;9.212;2022-08-03T01:53:28;7.43;;;5.10;;
286;SDS011;127;48.770;9.212;2022-08-03T01:55:58;6.23;;;4.70;;
286;SDS011;127;48.770;9.212;2022-08-03T01:58:29;6.20;;;4.33;;
286;SDS011;127;48.770;9.212;2022-08-03T02:01:01;6.27;;;4.63;;
286;SDS011;127;48.770;9.212;2022-08-03T02:03:32;8.60;;;4.70;;
286;SDS011;127;48.770;9.212;2022-08-03T02:06:04;6.87;;;4.47;;
286;SDS011;127;48.770;9.212;2022-08-03T02:08:36;7.30;;;4.57;;
286;SDS011;127;48.770;9.212;2022-08-03T02:11:05;9.90;;;5.23;;
286;SDS011;127;48.770;9.212;2022-08-03T02:13:34;5.50;;;4.30;;
286;SDS011;127;48.770;9.212;2022-08-03T02:16:06;6.20;;;4.30;;
286;SDS011;127;48.770;9.212;2022-08-03T02:18:36;5.50;;;4.13;;
286;SDS011;127;48.770;9.212;2022-08-03T02:21:06;7.20;;;4.73;;
286;SDS011;127;48.770;9.212;2022-08-03T02:23:37;6.63;;;4.63;;
286;SDS011;127;48.770;9.212;2022-08-03T02:26:07;7.60;;;5.23;;
286;SDS011;127;48.770;9.212;2022-08-03T02:28:40;7.87;;;5.07;;
286;SDS011;127;48.770;9.212;2022-08-03T02:31:17;6.77;;;4.87;;
286;SDS011;127;48.770;9.212;2022-08-03T02:33:52;8.70;;;5.00;;
286;SDS011;127;48.770;9.212;2022-08-03T02:36:26;7.67;;;4.73;;
286;SDS011;127;48.770;9.212;2022-08-03T02:38:57;10.27;;;4.27;;
286;SDS011;127;48.770;9.212;2022-08-03T02:41:30;7.90;;;5.60;;
286;SDS011;127;48.770;9.212;2022-08-03T02:44:03;9.40;;;4.20;;
286;SDS011;127;48.770;9.212;2022-08-03T02:46:40;6.80;;;4.93;;
286;SDS011;127;48.770;9.212;2022-08-03T02:49:13;8.90;;;5.50;;
286;SDS011;127;48.770;9.212;2022-08-03T02:51:44;9.33;;;5.23;;
286;SDS011;127;48.770;9.212;2022-08-03T02:54:16;11.60;;;5.53;;
286;SDS011;127;48.770;9.212;2022-08-03T02:56:46;10.17;;;5.67;;
286;SDS011;127;48.770;9.212;2022-08-03T02:59:16;9.73;;;5.77;;
286;SDS011;127;48.770;9.212;2022-08-03T03:01:48;10.83;;;5.80;;
286;SDS011;127;48.770;9.212;2022-08-03T03:04:18;7.30;;;5.47;;
286;SDS011;127;48.770;9.212;2022-08-03T03:06:48;8.53;;;5.50;;
286;SDS011;127;48.770;9.212;2022-08-03T03:09:18;7.67;;;5.30;;
286;SDS011;127;48.770;9.212;2022-08-03T03:11:49;16.23;;;6.30;;
286;SDS011;127;48.770;9.212;2022-08-03T03:14:19;13.60;;;6.00;;
286;SDS011;127;48.770;9.212;2022-08-03T03:16:51;11.70;;;6.40;;
286;SDS011;127;48.770;9.212;2022-08-03T03:19:21;9.67;;;6.33;;
286;SDS011;127;48.770;9.212;2022-08-03T03:21:51;12.30;;;5.40;;
286;SDS011;127;48.770;9.212;2022-08-03T03:24:26;11.67;;;6.27;;
286;SDS011;127;48.770;9.212;2022-08-03T03:26:55;9.13;;;6.37;;
286;SDS011;127;48.770;9.212;2022-08-03T03:29:24;8.30;;;6.03;;
286;SDS011;127;48.770;9.212;2022-08-03T03:31:56;9.53;;;6.23;;
286;SDS011;127;48.770;9.212;2022-08-03T03:34:25;8.43;;;6.30;;
286;SDS011;127;48.770;9.212;2022-08-03T03:36:56;7.23;;;5.60;;
286;SDS011;127;48.770;9.212;2022-08-03T03:39:24;11.27;;;5.43;;
286;SDS011;127;48.770;9.212;2022-08-03T03:41:54;12.00;;;6.23;;
286;SDS011;127;48.770;9.212;2022-08-03T03:44:25;10.13;;;6.43;;
286;SDS011;127;48.770;9.212;2022-08-03T03:46:57;9.70;;;6.73;;
286;SDS011;127;48.770;9.212;2022-08-03T03:49:26;8.03;;;5.77;;
286;SDS011;127;48.770;9.212;2022-08-03T03:51:54;11.60;;;6.37;;
286;SDS011;127;48.770;9.212;2022-08-03T03:54:24;10.23;;;6.60;;
286;SDS011;127;48.770;9.212;2022-08-03T03:56:53;10.10;;;6.50;;
286;SDS011;127;48.770;9.212;2022-08-03T03:59:22;9.60;;;6.70;;
286;SDS011;127;48.770;9.212;2022-08-03T04:01:50;9.23;;;6.43;;
286;SDS011;127;48.770;9.212;2022-08-03T04:04:22;8.47;;;6.17;;
286;SDS011;127;48.770;9.212;2022-08-03T04:07:11;11.27;;;6.20;;
286;SDS011;127;48.770;9.212;2022-08-03T04:09:53;10.03;;;6.50;;
286;SDS011;127;48.770;9.212;2022-08-03T04:12:35;7.93;;;6.33;;
286;SDS011;127;48.770;9.212;2022-08-03T04:15:05;10.53;;;7.10;;
286;SDS011;127;48.770;9.212;2022-08-03T04:17:36;13.67;;;5.87;;
286;SDS011;127;48.770;9.212;2022-08-03T04:20:09;8.67;;;6.37;;
286;SDS011;127;48.770;9.212;2022-08-03T04:22:40;8.53;;;6.43;;
286;SDS011;127;48.770;9.212;2022-08-03T04:25:09;10.00;;;6.50;;
286;SDS011;127;48.770;9.212;2022-08-03T04:27:43;9.30;;;7.10;;
286;SDS011;127;48.770;9.212;2022-08-03T04:30:19;19.13;;;7.27;;
286;SDS011;127;48.770;9.212;2022-08-03T04:32:49;10.20;;;7.43;;
286;SDS011;127;48.770;9.212;2022-08-03T04:35:22;12.30;;;6.37;;
286;SDS011;127;48.770;9.212;2022-08-03T04:37:52;9.80;;;6.50;;
286;SDS011;127;48.770;9.212;2022-08-03T04:40:24;9.80;;;6.53;;
286;SDS011;127;48.770;9.212;2022-08-03T04:42:57;8.60;;;6.17;;
286;SDS011;127;48.770;9.212;2022-08-03T04:45:27;7.40;;;5.70;;
286;SDS011;127;48.770;9.212;2022-08-03T04:47:58;13.87;;;7.43;;
286;SDS011;127;48.770;9.212;2022-08-03T04:50:30;12.93;;;7.10;;
286;SDS011;127;48.770;9.212;2022-08-03T04:52:59;11.07;;;7.53;;
286;SDS011;127;48.770;9.212;2022-08-03T04:55:28;12.57;;;7.30;;
286;SDS011;127;48.770;9.212;2022-08-03T04:57:59;11.03;;;8.00;;
286;SDS011;127;48.770;9.212;2022-08-03T05:00:28;12.30;;;8.00;;
286;SDS011;127;48.770;9.212;2022-08-03T05:02:57;12.27;;;7.80;;
286;SDS011;127;48.770;9.212;2022-08-03T05:05:26;9.10;;;7.30;;
286;SDS011;127;48.770;9.212;2022-08-03T05:07:57;13.13;;;7.60;;
286;SDS011;127;48.770;9.212;2022-08-03T05:10:26;15.17;;;7.70;;
286;SDS011;127;48.770;9.212;2022-08-03T05:12:55;15.13;;;7.27;;
286;SDS011;127;48.770;9.212;2022-08-03T05:15:24;13.43;;;7.13;;
286;SDS011;127;48.770;9.212;2022-08-03T05:17:52;10.10;;;7.57;;
286;SDS011;127;48.770;9.212;2022-08-03T05:20:21;9.17;;;6.90;;
286;SDS011;127;48.770;9.212;2022-08-03T05:22:50;11.00;;;7.00;;
286;SDS011;127;48.770;9.212;2022-08-03T05:25:22;9.90;;;6.70;;
286;SDS011;127;48.770;9.212;2022-08-03T05:27:51;11.67;;;7.40;;
286;SDS011;127;48.770;9.212;2022-08-03T05:30:20;11.97;;;7.60;;
286;SDS011;127;48.770;9.212;2022-08-03T05:32:49;11.63;;;6.80;;
286;SDS011;127;48.770;9.212;2022-08-03T05:35:18;10.43;;;6.90;;
286;SDS011;127;48.770;9.212;2022-08-03T05:37:49;9.77;;;7.13;;
286;SDS011;127;48.770;9.212;2022-08-03T05:43:25;11.30;;;6.03;;
286;SDS011;127;48.770;9.212;2022-08-03T05:45:56;11.10;;;5.40;;
286;SDS011;127;48.770;9.212;2022-08-03T05:48:27;10.50;;;6.90;;
286;SDS011;127;48.770;9.212;2022-08-03T05:50:58;10.43;;;6.23;;
286;SDS011;127;48.770;9.212;2022-08-03T05:53:31;12.43;;;5.73;;
286;SDS011;127;48.770;9.212;2022-08-03T05:56:00;13.30;;;6.20;;
286;SDS011;127;48.770;9.212;2022-08-03T05:58:31;14.60;;;6.83;;
286;SDS011;127;48.770;9.212;2022-08-03T06:01:00;9.90;;;6.10;;
286;SDS011;127;48.770;9.212;2022-08-03T06:03:29;7.97;;;5.93;;
286;SDS011;127;48.770;9.212;2022-08-03T06:05:58;9.43;;;7.00;;
286;SDS011;127;48.770;9.212;2022-08-03T06:08:26;7.50;;;6.07;;
286;SDS011;127;48.770;9.212;2022-08-03T06:10:55;9.27;;;5.50;;
286;SDS011;127;48.770;9.212;2022-08-03T06:13:24;10.43;;;5.20;;
286;SDS011;127;48.770;9.212;2022-08-03T06:15:55;16.10;;;5.57;;
286;SDS011;127;48.770;9.212;2022-08-03T06:18:24;9.63;;;5.40;;
286;SDS011;127;48.770;9.212;2022-08-03T06:20:53;8.70;;;4.90;;
286;SDS011;127;48.770;9.212;2022-08-03T06:23:22;8.97;;;5.47;;
286;SDS011;127;48.770;9.212;2022-08-03T06:25:51;6.63;;;5.10;;
286;SDS011;127;48.770;9.212;2022-08-03T06:28:19;7.27;;;5.07;;
286;SDS011;127;48.770;9.212;2022-08-03T06:30:48;7.60;;;4.67;;
286;SDS011;127;48.770;9.212;2022-08-03T06:33:20;7.07;;;4.37;;
286;SDS011;127;48.770;9.212;2022-08-03T06:35:50;6.87;;;4.40;;
286;SDS011;127;48.770;9.212;2022-08-03T06:38:18;8.33;;;4.60;;
286;SDS011;127;48.770;9.212;2022-08-03T06:40:47;8.63;;;4.03;;
286;SDS011;127;48.770;9.212;2022-08-03T06:43:16;9.93;;;4.83;;
286;SDS011;127;48.770;9.212;2022-08-03T06:45:45;11.43;;;4.43;;
286;SDS011;127;48.770;9.212;2022-08-03T06:48:13;7.00;;;3.97;;
286;SDS011;127;48.770;9.212;2022-08-03T06:50:45;7.80;;;4.30;;
286;SDS011;127;48.770;9.212;2022-08-03T06:53:14;6.23;;;4.30;;
286;SDS011;127;48.770;9.212;2022-08-03T06:55:42;9.77;;;5.13;;
286;SDS011;127;48.770;9.212;2022-08-03T06:58:13;8.90;;;4.67;;
286;SDS011;127;48.770;9.212;2022-08-03T07:00:42;4.73;;;4.03;;
286;SDS011;127;48.770;9.212;2022-08-03T07:03:12;8.43;;;4.67;;
286;SDS011;127;48.770;9.212;2022-08-03T07:05:45;5.27;;;3.80;;
286;SDS011;127;48.770;9.212;2022-08-03T07:08:16;5.03;;;3.27;;
286;SDS011;127;48.770;9.212;2022-08-03T07:11:01;4.93;;;3.73;;
286;SDS011;127;48.770;9.212;2022-08-03T07:13:39;5.33;;;3.80;;
286;SDS011;127;48.770;9.212;2022-08-03T07:16:08;6.03;;;4.07;;
286;SDS011;127;48.770;9.212;2022-08-03T07:18:37;6.87;;;3.43;;
286;SDS011;127;48.770;9.212;2022-08-03T07:21:08;6.20;;;3.10;;
286;SDS011;127;48.770;9.212;2022-08-03T07:23:41;4.13;;;3.40;;
286;SDS011;127;48.770;9.212;2022-08-03T07:26:10;5.70;;;3.63;;
286;SDS011;127;48.770;9.212;2022-08-03T07:28:39;5.17;;;4.10;;
286;SDS011;127;48.770;9.212;2022-08-03T07:31:08;6.93;;;3.90;;
286;SDS011;127;48.770;9.212;2022-08-03T07:33:42;6.93;;;3.43;;
286;SDS011;127;48.770;9.212;2022-08-03T07:36:16;5.50;;;3.30;;
286;SDS011;127;48.770;9.212;2022-08-03T07:38:46;3.67;;;2.93;;
286;SDS011;127;48.770;9.212;2022-08-03T07:41:15;4.73;;;3.33;;
286;SDS011;127;48.770;9.212;2022-08-03T07:43:45;5.27;;;3.10;;
286;SDS011;127;48.770;9.212;2022-08-03T07:46:16;4.93;;;3.37;;
286;SDS011;127;48.770;9.212;2022-08-03T07:48:45;6.77;;;4.03;;
286;SDS011;127;48.770;9.212;2022-08-03T07:51:16;7.70;;;3.20;;
286;SDS011;127;48.770;9.212;2022-08-03T07:53:45;2.70;;;2.50;;
286;SDS011;127;48.770;9.212;2022-08-03T07:56:14;3.97;;;3.30;;
286;SDS011;127;48.770;9.212;2022-08-03T07:58:43;10.93;;;3.27;;
286;SDS011;127;48.770;9.212;2022-08-03T08:01:12;8.53;;;3.30;;
286;SDS011;127;48.770;9.212;2022-08-03T08:03:41;6.00;;;3.60;;
286;SDS011;127;48.770;9.212;2022-08-03T08:06:12;5.27;;;3.10;;
286;SDS011;127;48.770;9.212;2022-08-03T08:08:44;4.70;;;3.67;;
286;SDS011;127;48.770;9.212;2022-08-03T08:11:13;4.03;;;2.47;;
286;SDS011;127;48.770;9.212;2022-08-03T08:13:42;5.50;;;3.33;;
286;SDS011;127;48.770;9.212;2022-08-03T08:16:10;3.27;;;2.73;;
286;SDS011;127;48.770;9.212;2022-08-03T08:18:39;4.90;;;2.50;;
286;SDS011;127;48.770;9.212;2022-08-03T08:21:08;3.20;;;2.60;;
286;SDS011;127;48.770;9.212;2022-08-03T08:23:36;4.03;;;2.63;;
286;SDS011;127;48.770;9.212;2022-08-03T08:26:11;8.50;;;2.80;;
286;SDS011;127;48.770;9.212;2022-08-03T08:28:39;3.67;;;2.73;;
286;SDS011;127;48.770;9.212;2022-08-03T08:31:08;10.40;;;2.70;;
286;SDS011;127;48.770;9.212;2022-08-03T08:33:37;4.60;;;2.87;;
286;SDS011;127;48.770;9.212;2022-08-03T08:36:06;5.10;;;2.80;;
286;SDS011;127;48.770;9.212;2022-08-03T08:38:34;4.47;;;2.80;;
286;SDS011;127;48.770;9.212;2022-08-03T08:41:06;6.07;;;3.00;;
286;SDS011;127;48.770;9.212;2022-08-03T08:43:38;3.47;;;2.60;;
286;SDS011;127;48.770;9.212;2022-08-03T08:46:06;3.03;;;2.90;;
286;SDS011;127;48.770;9.212;2022-08-03T08:48:39;3.90;;;3.00;;
286;SDS011;127;48.770;9.212;2022-08-03T08:51:11;4.33;;;2.70;;
286;SDS011;127;48.770;9.212;2022-08-03T08:53:42;3.07;;;2.43;;
286;SDS011;127;48.770;9.212;2022-08-03T08:56:16;2.77;;;2.20;;
286;SDS011;127;48.770;9.212;2022-08-03T08:58:50;2.47;;;2.07;;
286;SDS011;127;48.770;9.212;2022-08-03T09:01:20;2.73;;;1.93;;
286;SDS011;127;48.770;9.212;2022-08-03T09:03:49;3.90;;;2.43;;
286;SDS011;127;48.770;9.212;2022-08-03T09:06:18;4.80;;;1.90;;
286;SDS011;127;48.770;9.212;2022-08-03T09:08:47;3.27;;;2.30;;
286;SDS011;127;48.770;9.212;2022-08-03T09:11:19;3.50;;;2.00;;
286;SDS011;127;48.770;9.212;2022-08-03T09:13:51;2.30;;;1.93;;
286;SDS011;127;48.770;9.212;2022-08-03T09:16:23;6.37;;;2.57;;
286;SDS011;127;48.770;9.212;2022-08-03T09:18:52;3.70;;;2.70;;
286;SDS011;127;48.770;9.212;2022-08-03T09:21:22;5.40;;;2.30;;
286;SDS011;127;48.770;9.212;2022-08-03T09:23:53;4.77;;;2.60;;
286;SDS011;127;48.770;9.212;2022-08-03T09:26:24;3.23;;;2.50;;
286;SDS011;127;48.770;9.212;2022-08-03T09:29:01;3.97;;;2.50;;
286;SDS011;127;48.770;9.212;2022-08-03T09:31:32;2.97;;;2.40;;
286;SDS011;127;48.770;9.212;2022-08-03T09:34:03;2.93;;;2.00;;
286;SDS011;127;48.770;9.212;2022-08-03T09:36:33;6.40;;;2.87;;
286;SDS011;127;48.770;9.212;2022-08-03T09:39:03;13.30;;;2.60;;
286;SDS011;127;48.770;9.212;2022-08-03T09:41:35;5.90;;;2.57;;
286;SDS011;127;48.770;9.212;2022-08-03T09:44:06;3.10;;;2.10;;
286;SDS011;127;48.770;9.212;2022-08-03T09:46:48;2.53;;;2.30;;
286;SDS011;127;48.770;9.212;2022-08-03T09:49:17;3.27;;;2.30;;
286;SDS011;127;48.770;9.212;2022-08-03T09:51:48;4.93;;;1.93;;
286;SDS011;127;48.770;9.212;2022-08-03T09:54:24;2.97;;;2.63;;
286;SDS011;127;48.770;9.212;2022-08-03T09:56:54;5.00;;;2.00;;
286;SDS011;127;48.770;9.212;2022-08-03T09:59:26;2.43;;;2.23;;
286;SDS011;127;48.770;9.212;2022-08-03T10:01:57;2.43;;;2.23;;
286;SDS011;127;48.770;9.212;2022-08-03T10:04:27;4.47;;;2.60;;
286;SDS011;127;48.770;9.212;2022-08-03T10:07:03;2.40;;;2.27;;
286;SDS011;127;48.770;9.212;2022-08-03T10:09:33;2.47;;;2.17;;
286;SDS011;127;48.770;9.212;2022-08-03T10:12:08;2.43;;;2.10;;
286;SDS011;127;48.770;9.212;2022-08-03T10:14:42;2.57;;;2.37;;
286;SDS011;127;48.770;9.212;2022-08-03T10:17:16;3.23;;;2.50;;
286;SDS011;127;48.770;9.212;2022-08-03T10:19:45;2.50;;;2.30;;
286;SDS011;127;48.770;9.212;2022-08-03T10:22:15;2.30;;;1.93;;
286;SDS011;127;48.770;9.212;2022-08-03T10:24:51;2.40;;;2.20;;
286;SDS011;127;48.770;9.212;2022-08-03T10:27:22;2.70;;;2.53;;
286;SDS011;127;48.770;9.212;2022-08-03T10:29:56;3.90;;;2.23;;
286;SDS011;127;48.770;9.212;2022-08-03T10:32:31;3.50;;;1.70;;
286;SDS011;127;48.770;9.212;2022-08-03T10:35:06;3.67;;;2.17;;
286;SDS011;127;48.770;9.212;2022-08-03T10:37:40;2.73;;;2.57;;
286;SDS011;127;48.770;9.212;2022-08-03T10:40:11;2.80;;;2.27;;
286;SDS011;127;48.770;9.212;2022-08-03T10:42:44;2.50;;;2.33;;
286;SDS011;127;48.770;9.212;2022-08-03T10:48:24;8.63;;;2.60;;
286;SDS011;127;48.770;9.212;2022-08-03T10:50:53;2.73;;;2.53;;
286;SDS011;127;48.770;9.212;2022-08-03T10:53:35;2.43;;;2.27;;
286;SDS011;127;48.770;9.212;2022-08-03T10:56:06;2.83;;;2.57;;
286;SDS011;127;48.770;9.212;2022-08-03T11:05:35;2.47;;;2.30;;
286;SDS011;127;48.770;9.212;2022-08-03T11:10:59;2.63;;;2.43;;
286;SDS011;127;48.770;9.212;2022-08-03T11:13:56;3.10;;;2.23;;
286;SDS011;127;48.770;9.212;2022-08-03T11:16:27;3.83;;;2.73;;
286;SDS011;127;48.770;9.212;2022-08-03T11:18:57;3.80;;;2.77;;
286;SDS011;127;48.770;9.212;2022-08-03T11:27:29;5.93;;;2.80;;
286;SDS011;127;48.770;9.212;2022-08-03T11:29:59;3.40;;;2.97;;
286;SDS011;127;48.770;9.212;2022-08-03T11:35:21;2.70;;;2.50;;
286;SDS011;127;48.770;9.212;2022-08-03T11:38:03;3.07;;;2.70;;
286;SDS011;127;48.770;9.212;2022-08-03T11:40:40;5.83;;;2.70;;
286;SDS011;127;48.770;9.212;2022-08-03T11:46:12;2.90;;;2.70;;
286;SDS011;127;48.770;9.212;2022-08-03T11:48:46;4.73;;;2.60;;
286;SDS011;127;48.770;9.212;2022-08-03T11:51:19;3.13;;;2.80;;
286;SDS011;127;48.770;9.212;2022-08-03T11:53:56;3.70;;;2.77;;
286;SDS011;127;48.770;9.212;2022-08-03T11:56:42;3.60;;;2.87;;
286;SDS011;127;48.770;9.212;2022-08-03T11:59:12;3.00;;;2.60;;
286;SDS011;127;48.770;9.212;2022-08-03T12:01:41;4.43;;;3.33;;
286;SDS011;127;48.770;9.212;2022-08-03T12:04:12;2.87;;;2.67;;
286;SDS011;127;48.770;9.212;2022-08-03T12:06:41;3.03;;;2.83;;
286;SDS011;127;48.770;9.212;2022-08-03T12:09:31;2.93;;;2.73;;
286;SDS011;127;48.770;9.212;2022-08-03T12:12:02;3.73;;;2.57;;
286;SDS011;127;48.770;9.212;2022-08-03T12:14:31;3.17;;;2.90;;
286;SDS011;127;48.770;9.212;2022-08-03T12:17:00;2.90;;;2.63;;
286;SDS011;127;48.770;9.212;2022-08-03T12:19:40;4.00;;;2.57;;
286;SDS011;127;48.770;9.212;2022-08-03T12:22:09;3.57;;;2.47;;
286;SDS011;127;48.770;9.212;2022-08-03T12:24:42;3.40;;;2.73;;
286;SDS011;127;48.770;9.212;2022-08-03T12:27:12;4.30;;;2.60;;
286;SDS011;127;48.770;9.212;2022-08-03T12:29:50;2.80;;;2.60;;
286;SDS011;127;48.770;9.212;2022-08-03T12:32:20;3.30;;;3.00;;
286;SDS011;127;48.770;9.212;2022-08-03T12:34:50;4.13;;;2.70;;
286;SDS011;127;48.770;9.212;2022-08-03T12:40:06;3.53;;;2.20;;
286;SDS011;127;48.770;9.212;2022-08-03T12:42:38;4.20;;;2.80;;
286;SDS011;127;48.770;9.212;2022-08-03T12:45:20;2.50;;;2.30;;
286;SDS011;127;48.770;9.212;2022-08-03T12:47:50;3.00;;;2.63;;
286;SDS011;127;48.770;9.212;2022-08-03T12:50:25;5.30;;;2.50;;
286;SDS011;127;48.770;9.212;2022-08-03T12:52:57;2.87;;;2.33;;
286;SDS011;127;48.770;9.212;2022-08-03T12:55:30;2.27;;;2.10;;
286;SDS011;127;48.770;9.212;2022-08-03T12:58:03;6.70;;;2.63;;
286;SDS011;127;48.770;9.212;2022-08-03T13:00:35;7.93;;;2.73;;
286;SDS011;127;48.770;9.212;2022-08-03T13:03:06;3.00;;;2.57;;
286;SDS011;127;48.770;9.212;2022-08-03T13:05:42;2.70;;;2.40;;
286;SDS011;127;48.770;9.212;2022-08-03T13:08:17;3.37;;;2.60;;
286;SDS011;127;48.770;9.212;2022-08-03T13:10:49;2.60;;;2.40;;
286;SDS011;127;48.770;9.212;2022-08-03T13:16:05;3.33;;;2.70;;
286;SDS011;127;48.770;9.212;2022-08-03T13:18:33;2.93;;;2.40;;
286;SDS011;127;48.770;9.212;2022-08-03T13:21:02;4.30;;;2.97;;
286;SDS011;127;48.770;9.212;2022-08-03T13:23:31;2.87;;;2.37;;
286;SDS011;127;48.770;9.212;2022-08-03T13:26:02;4.33;;;2.87;;
286;SDS011;127;48.770;9.212;2022-08-03T13:28:45;3.07;;;2.50;;
286;SDS011;127;48.770;9.212;2022-08-03T13:31:14;3.00;;;2.80;;
286;SDS011;127;48.770;9.212;2022-08-03T13:33:43;5.33;;;2.60;;
286;SDS011;127;48.770;9.212;2022-08-03T13:36:13;3.80;;;2.70;;
286;SDS011;127;48.770;9.212;2022-08-03T13:38:41;5.43;;;2.97;;
286;SDS011;127;48.770;9.212;2022-08-03T13:41:13;7.73;;;2.57;;
286;SDS011;127;48.770;9.212;2022-08-03T13:43:46;3.10;;;2.33;;
286;SDS011;127;48.770;9.212;2022-08-03T13:46:16;3.00;;;2.80;;
286;SDS011;127;48.770;9.212;2022-08-03T13:48:48;2.90;;;2.73;;
286;SDS011;127;48.770;9.212;2022-08-03T13:51:16;2.70;;;2.50;;
286;SDS011;127;48.770;9.212;2022-08-03T13:53:45;2.80;;;2.50;;
286;SDS011;127;48.770;9.212;2022-08-03T13:56:16;2.83;;;2.13;;
286;SDS011;127;48.770;9.212;2022-08-03T13:58:45;3.90;;;2.77;;
286;SDS011;127;48.770;9.212;2022-08-03T14:01:17;4.17;;;2.67;;
286;SDS011;127;48.770;9.212;2022-08-03T14:03:51;4.43;;;3.03;;
286;SDS011;127;48.770;9.212;2022-08-03T14:06:23;4.40;;;3.03;;
286;SDS011;127;48.770;9.212;2022-08-03T14:08:55;4.60;;;2.70;;
286;SDS011;127;48.770;9.212;2022-08-03T14:11:26;3.70;;;2.73;;
286;SDS011;127;48.770;9.212;2022-08-03T14:13:55;5.20;;;2.73;;
286;SDS011;127;48.770;9.212;2022-08-03T14:16:24;3.30;;;2.60;;
286;SDS011;127;48.770;9.212;2022-08-03T14:18:52;2.83;;;2.50;;
286;SDS011;127;48.770;9.212;2022-08-03T14:21:23;2.80;;;2.60;;
286;SDS011;127;48.770;9.212;2022-08-03T14:23:52;4.10;;;2.50;;
286;SDS011;127;48.770;9.212;2022-08-03T14:26:21;3.00;;;2.40;;
286;SDS011;127;48.770;9.212;2022-08-03T14:28:54;3.13;;;2.57;;
286;SDS011;127;48.770;9.212;2022-08-03T14:31:22;3.33;;;2.80;;
286;SDS011;127;48.770;9.212;2022-08-03T14:33:54;3.10;;;2.60;;
286;SDS011;127;48.770;9.212;2022-08-03T14:36:22;4.20;;;2.63;;
286;SDS011;127;48.770;9.212;2022-08-03T14:38:51;5.93;;;2.63;;
286;SDS011;127;48.770;9.212;2022-08-03T14:41:20;5.47;;;2.40;;
286;SDS011;127;48.770;9.212;2022-08-03T14:43:48;2.80;;;2.43;;
286;SDS011;127;48.770;9.212;2022-08-03T14:46:20;5.10;;;2.33;;
286;SDS011;127;48.770;9.212;2022-08-03T14:48:53;5.23;;;2.63;;
286;SDS011;127;48.770;9.212;2022-08-03T14:51:22;2.30;;;2.13;;
286;SDS011;127;48.770;9.212;2022-08-03T14:53:52;3.97;;;2.50;;
286;SDS011;127;48.770;9.212;2022-08-03T14:56:20;6.17;;;2.60;;
286;SDS011;127;48.770;9.212;2022-08-03T14:58:49;2.90;;;2.63;;
286;SDS011;127;48.770;9.212;2022-08-03T15:01:20;2.90;;;2.40;;
286;SDS011;127;48.770;9.212;2022-08-03T15:03:50;5.17;;;3.23;;
286;SDS011;127;48.770;9.212;2022-08-03T15:06:20;2.40;;;2.20;;
286;SDS011;127;48.770;9.212;2022-08-03T15:08:49;4.07;;;2.87;;
286;SDS011;127;48.770;9.212;2022-08-03T15:11:21;2.83;;;2.20;;
286;SDS011;127;48.770;9.212;2022-08-03T15:13:50;3.03;;;2.33;;
286;SDS011;127;48.770;9.212;2022-08-03T15:16:21;3.73;;;3.13;;
286;SDS011;127;48.770;9.212;2022-08-03T15:18:50;2.50;;;2.30;;
286;SDS011;127;48.770;9.212;2022-08-03T15:21:21;3.17;;;2.60;;
286;SDS011;127;48.770;9.212;2022-08-03T15:23:51;3.10;;;2.30;;
286;SDS011;127;48.770;9.212;2022-08-03T15:26:19;3.07;;;2.27;;
286;SDS011;127;48.770;9.212;2022-08-03T15:28:48;2.63;;;2.40;;
286;SDS011;127;48.770;9.212;2022-08-03T15:31:22;2.40;;;2.30;;
286;SDS011;127;48.770;9.212;2022-08-03T15:33:51;7.80;;;1.90;;
286;SDS011;127;48.770;9.212;2022-08-03T15:36:20;5.43;;;2.67;;
286;SDS011;127;48.770;9.212;2022-08-03T15:38:51;3.13;;;2.37;;
286;SDS011;127;48.770;9.212;2022-08-03T15:41:20;2.30;;;2.10;;
286;SDS011;127;48.770;9.212;2022-08-03T15:43:49;7.00;;;2.70;;
286;SDS011;127;48.770;9.212;2022-08-03T15:46:25;2.60;;;2.40;;
286;SDS011;127;48.770;9.212;2022-08-03T15:48:53;4.80;;;2.87;;
286;SDS011;127;48.770;9.212;2022-08-03T15:51:22;2.67;;;2.37;;
286;SDS011;127;48.770;9.212;2022-08-03T15:53:51;2.60;;;2.33;;
286;SDS011;127;48.770;9.212;2022-08-03T15:56:20;2.40;;;2.23;;
286;SDS011;127;48.770;9.212;2022-08-03T15:58:49;3.20;;;2.60;;
286;SDS011;127;48.770;9.212;2022-08-03T16:01:17;3.60;;;2.30;;
286;SDS011;127;48.770;9.212;2022-08-03T16:03:49;5.30;;;2.27;;
286;SDS011;127;48.770;9.212;2022-08-03T16:06:17;5.10;;;2.77;;
286;SDS011;127;48.770;9.212;2022-08-03T16:08:46;4.60;;;2.53;;
286;SDS011;127;48.770;9.212;2022-08-03T16:11:15;6.30;;;2.20;;
286;SDS011;127;48.770;9.212;2022-08-03T16:13:46;2.87;;;2.47;;
286;SDS011;127;48.770;9.212;2022-08-03T16:16:18;3.47;;;2.57;;
286;SDS011;127;48.770;9.212;2022-08-03T16:18:50;2.57;;;2.37;;
286;SDS011;127;48.770;9.212;2022-08-03T16:21:19;4.03;;;2.40;;
286;SDS011;127;48.770;9.212;2022-08-03T16:23:47;3.37;;;2.70;;
286;SDS011;127;48.770;9.212;2022-08-03T16:26:16;3.30;;;2.33;;
286;SDS011;127;48.770;9.212;2022-08-03T16:28:47;3.70;;;2.50;;
286;SDS011;127;48.770;9.212;2022-08-03T16:31:16;2.50;;;2.37;;
286;SDS011;127;48.770;9.212;2022-08-03T16:33:46;4.53;;;2.10;;
286;SDS011;127;48.770;9.212;2022-08-03T16:36:17;2.77;;;2.27;;
286;SDS011;127;48.770;9.212;2022-08-03T16:38:46;6.13;;;2.83;;
286;SDS011;127;48.770;9.212;2022-08-03T16:41:14;5.10;;;2.60;;